createdAt,value
2023-01-13T00:00:57.948Z,99452.63
2023-01-13T00:03:24.790Z,99450.22
2023-01-13T00:05:51.603Z,99449.19
2023-01-13T00:08:18.449Z,99450.09
2023-01-13T00:10:48.309Z,99452.63
2023-01-13T00:13:15.316Z,99440.72
2023-01-13T00:15:42.348Z,99449.31
2023-01-13T00:18:09.291Z,99455.22
2023-01-13T00:20:36.123Z,99457.75
2023-01-13T00:23:04.423Z,99456.91
2023-01-13T00:25:31.251Z,99449.25
2023-01-13T00:27:58.052Z,99455.13
2023-01-13T00:30:24.899Z,99454.31
2023-01-13T00:32:51.696Z,99461.91
2023-01-13T00:35:18.524Z,99463.59
2023-01-13T00:37:45.318Z,99456.78
2023-01-13T00:40:12.418Z,99471.91
2023-01-13T00:42:57.754Z,99470.13
2023-01-13T00:45:24.549Z,99478.66
2023-01-13T00:47:51.461Z,99492.09
2023-01-13T00:50:18.402Z,99515.38
2023-01-13T00:52:45.196Z,99465.06
2023-01-13T00:55:12.020Z,99479.13
2023-01-13T00:57:40.125Z,99477.22
2023-01-13T01:00:09.151Z,99466.94
2023-01-13T01:02:36.067Z,99454.97
2023-01-13T01:05:02.943Z,99454.75
2023-01-13T01:07:29.893Z,99451.50
2023-01-13T01:09:56.731Z,99451.44
2023-01-13T01:12:23.558Z,99467.47
2023-01-13T01:14:50.367Z,99476.72
2023-01-13T01:17:17.203Z,99474.00
2023-01-13T01:19:44.322Z,99480.69
2023-01-13T01:22:11.154Z,99471.03
2023-01-13T01:24:37.967Z,99478.91
2023-01-13T01:27:04.824Z,99488.97
2023-01-13T01:29:31.712Z,99484.78
2023-01-13T01:31:59.139Z,99488.16
2023-01-13T01:34:25.996Z,99482.31
2023-01-13T01:36:52.791Z,99486.50
2023-01-13T01:39:19.587Z,99481.31
2023-01-13T01:42:08.203Z,99484.69
2023-01-13T01:44:57.014Z,99496.41
2023-01-13T01:47:26.357Z,99493.03
2023-01-13T01:49:53.397Z,99487.84
2023-01-13T01:52:34.819Z,99480.09
2023-01-13T01:55:10.111Z,99492.66
2023-01-13T01:57:49.070Z,99500.06
2023-01-13T02:00:16.436Z,99498.22
2023-01-13T02:02:46.442Z,99493.81
2023-01-13T02:05:14.021Z,99486.81
2023-01-13T02:07:43.338Z,99492.44
2023-01-13T02:10:16.406Z,99495.66
2023-01-13T02:12:45.430Z,99502.31
2023-01-13T02:15:16.117Z,99489.47
2023-01-13T02:17:59.851Z,99498.53
2023-01-13T02:20:35.718Z,99499.97
2023-01-13T02:23:52.521Z,99496.44
2023-01-13T02:26:39.681Z,99497.97
2023-01-13T02:29:53.152Z,99497.94
2023-01-13T02:32:27.755Z,99485.66
2023-01-13T02:35:07.280Z,99490.69
2023-01-13T02:37:38.980Z,99487.22
2023-01-13T02:40:14.712Z,99489.50
2023-01-13T02:43:09.392Z,99492.97
2023-01-13T02:46:08.689Z,99493.66
2023-01-13T02:48:38.388Z,99504.44
2023-01-13T02:51:09.812Z,99506.03
2023-01-13T02:53:45.812Z,99502.53
2023-01-13T02:56:14.347Z,99508.25
2023-01-13T02:58:45.448Z,99508.94
2023-01-13T03:01:12.398Z,99516.34
2023-01-13T03:03:39.181Z,99509.25
2023-01-13T03:06:32.225Z,99521.09
2023-01-13T03:09:08.007Z,99524.28
2023-01-13T03:11:45.754Z,99514.59
2023-01-13T03:14:31.505Z,99523.09
2023-01-13T03:17:20.238Z,99537.41
2023-01-13T03:20:05.461Z,99532.28
2023-01-13T03:22:35.764Z,99533.88
2023-01-13T03:25:13.766Z,99539.66
2023-01-13T03:27:46.263Z,99543.84
2023-01-13T03:30:18.644Z,99542.25
2023-01-13T03:32:50.808Z,99537.94
2023-01-13T03:35:32.332Z,99545.44
2023-01-13T03:38:33.639Z,99546.31
2023-01-13T03:41:06.170Z,99543.66
2023-01-13T03:44:03.602Z,99540.28
2023-01-13T03:46:38.894Z,99541.88
2023-01-13T03:49:08.137Z,99534.97
2023-01-13T03:51:39.011Z,99532.44
2023-01-13T03:54:10.208Z,99524.75
2023-01-13T03:56:47.317Z,99513.53
2023-01-13T03:59:19.214Z,99512.34
2023-01-13T04:02:08.151Z,99532.44
2023-01-13T04:04:44.487Z,99521.22
2023-01-13T04:07:38.302Z,99528.69
2023-01-13T04:10:09.292Z,99524.22
2023-01-13T04:13:00.319Z,99518.03
2023-01-13T04:15:31.483Z,99520.53
2023-01-13T04:18:16.657Z,99511.75
2023-01-13T04:20:45.371Z,99514.19
2023-01-13T04:23:13.579Z,99528.63
2023-01-13T04:25:41.815Z,99527.50
2023-01-13T04:28:08.658Z,99524.91
2023-01-13T04:30:35.621Z,99517.25
2023-01-13T04:33:04.051Z,99519.72
2023-01-13T04:35:32.133Z,99529.75
2023-01-13T04:38:03.930Z,99532.09
2023-01-13T04:40:30.628Z,99530.31
2023-01-13T04:42:57.349Z,99536.25
2023-01-13T04:45:24.154Z,99528.53
2023-01-13T04:47:53.247Z,99537.75
2023-01-13T04:50:20.857Z,99539.53
2023-01-13T04:52:48.211Z,99528.72
2023-01-13T04:55:16.078Z,99528.88
2023-01-13T04:57:43.256Z,99525.63
2023-01-13T05:00:13.324Z,99530.78
2023-01-13T05:02:40.377Z,99513.03
2023-01-13T05:05:07.487Z,99517.41
2023-01-13T05:07:34.498Z,99505.66
2023-01-13T05:10:01.237Z,99502.19
2023-01-13T05:12:46.572Z,99498.94
2023-01-13T05:15:33.539Z,99500.59
2023-01-13T05:18:01.330Z,99501.34
2023-01-13T05:20:28.110Z,99494.56
2023-01-13T05:23:13.721Z,99496.81
2023-01-13T05:25:44.407Z,99483.06
2023-01-13T05:28:11.600Z,99499.13
2023-01-13T05:30:43.815Z,99499.69
2023-01-13T05:33:11.497Z,99502.13
2023-01-13T05:35:40.047Z,99508.84
2023-01-13T05:38:06.847Z,99503.53
2023-01-13T05:40:52.459Z,99505.41
2023-01-13T05:43:21.536Z,99500.34
2023-01-13T05:45:59.817Z,99503.81
2023-01-13T05:48:33.684Z,99494.66
2023-01-13T05:51:02.113Z,99500.78
2023-01-13T05:53:29.292Z,99492.50
2023-01-13T05:55:56.195Z,99487.31
2023-01-13T05:58:25.475Z,99496.59
2023-01-13T06:00:52.838Z,99499.31
2023-01-13T06:03:20.241Z,99495.16
2023-01-13T06:05:47.970Z,99501.81
2023-01-13T06:08:15.141Z,99496.75
2023-01-13T06:10:41.939Z,99506.19
2023-01-13T06:13:08.613Z,99502.19
2023-01-13T06:15:35.399Z,99501.47
2023-01-13T06:18:04.474Z,99504.00
2023-01-13T06:20:31.793Z,99509.88
2023-01-13T06:22:59.004Z,99502.19
2023-01-13T06:25:52.175Z,99499.59
2023-01-13T06:28:18.868Z,99492.22
2023-01-13T06:30:49.137Z,99489.66
2023-01-13T06:33:20.551Z,99492.19
2023-01-13T06:35:53.939Z,99478.38
2023-01-13T06:38:23.613Z,99483.53
2023-01-13T06:40:50.316Z,99487.72
2023-01-13T06:43:17.779Z,99484.28
2023-01-13T06:45:49.361Z,99486.78
2023-01-13T06:48:17.465Z,99499.41
2023-01-13T06:50:44.786Z,99495.22
2023-01-13T06:53:12.199Z,99492.66
2023-01-13T06:55:38.899Z,99497.81
2023-01-13T06:58:05.709Z,99494.44
2023-01-13T07:00:33.915Z,99479.09
2023-01-13T07:03:12.404Z,99488.59
2023-01-13T07:05:40.480Z,99492.84
2023-01-13T07:08:08.119Z,99480.91
2023-01-13T07:10:35.934Z,99491.06
2023-01-13T07:13:22.816Z,99496.09
2023-01-13T07:16:16.017Z,99493.38
2023-01-13T07:18:44.474Z,99493.38
2023-01-13T07:21:13.254Z,99496.81
2023-01-13T07:23:41.676Z,99501.84
2023-01-13T07:26:10.072Z,99498.47
2023-01-13T07:28:37.760Z,99510.28
2023-01-13T07:31:05.244Z,99514.59
2023-01-13T07:33:33.188Z,99504.53
2023-01-13T07:36:03.419Z,99501.19
2023-01-13T07:38:30.659Z,99505.47
2023-01-13T07:40:57.601Z,99498.63
2023-01-13T07:43:33.527Z,99505.50
2023-01-13T07:46:01.705Z,99507.25
2023-01-13T07:48:29.362Z,99508.97
2023-01-13T07:50:56.124Z,99510.53
2023-01-13T07:53:25.056Z,99512.28
2023-01-13T07:55:55.632Z,99514.06
2023-01-13T07:58:22.375Z,99507.16
2023-01-13T08:00:49.123Z,99515.66
2023-01-13T08:03:15.922Z,99515.78
2023-01-13T08:05:42.613Z,99501.59
2023-01-13T08:08:09.380Z,99510.28
2023-01-13T08:10:37.499Z,99503.44
2023-01-13T08:13:22.324Z,99496.97
2023-01-13T08:15:51.192Z,99500.38
2023-01-13T08:18:22.019Z,99504.59
2023-01-13T08:20:49.792Z,99497.81
2023-01-13T08:23:16.701Z,99502.88
2023-01-13T08:25:43.937Z,99503.66
2023-01-13T08:28:10.907Z,99499.41
2023-01-13T08:30:37.707Z,99491.00
2023-01-13T08:33:07.785Z,99486.66
2023-01-13T08:35:40.828Z,99498.69
2023-01-13T08:38:08.931Z,99500.38
2023-01-13T08:40:36.291Z,99491.94
2023-01-13T08:43:03.190Z,99498.22
2023-01-13T08:45:30.123Z,99507.09
2023-01-13T08:47:56.873Z,99515.66
2023-01-13T08:50:23.670Z,99512.25
2023-01-13T08:52:50.458Z,99507.38
2023-01-13T08:55:17.243Z,99508.28
2023-01-13T08:57:44.143Z,99513.53
2023-01-13T09:00:13.307Z,99511.94
2023-01-13T09:02:40.168Z,99511.72
2023-01-13T09:05:08.297Z,99516.09
2023-01-13T09:07:36.876Z,99518.03
2023-01-13T09:10:05.157Z,99507.97
2023-01-13T09:12:50.567Z,99504.88
2023-01-13T09:15:20.267Z,99505.59
2023-01-13T09:17:47.849Z,99503.94
2023-01-13T09:20:15.273Z,99503.88
2023-01-13T09:22:42.053Z,99510.84
2023-01-13T09:25:09.262Z,99516.94
2023-01-13T09:27:36.141Z,99509.44
2023-01-13T09:30:03.352Z,99515.44
2023-01-13T09:32:30.031Z,99519.97
2023-01-13T09:35:02.811Z,99520.09
2023-01-13T09:37:35.376Z,99525.31
2023-01-13T09:40:08.141Z,99527.97
2023-01-13T09:43:09.829Z,99519.69
2023-01-13T09:46:04.350Z,99514.63
2023-01-13T09:48:51.610Z,99502.78
2023-01-13T09:51:30.304Z,99507.03
2023-01-13T09:54:02.920Z,99509.69
2023-01-13T09:56:29.965Z,99510.53
2023-01-13T09:58:57.650Z,99503.81
2023-01-13T10:01:29.405Z,99497.91
2023-01-13T10:03:56.206Z,99497.97
2023-01-13T10:06:33.295Z,99504.88
2023-01-13T10:09:00.171Z,99517.50
2023-01-13T10:11:51.962Z,99504.88
2023-01-13T10:14:39.761Z,99500.56
2023-01-13T10:17:12.269Z,99514.16
2023-01-13T10:19:49.149Z,99490.41
2023-01-13T10:22:22.730Z,99496.38
2023-01-13T10:25:23.805Z,99503.13
2023-01-13T10:27:52.700Z,99499.88
2023-01-13T10:30:34.639Z,99507.53
2023-01-13T10:33:12.942Z,99491.25
2023-01-13T10:36:02.787Z,99501.53
2023-01-13T10:38:35.183Z,99494.22
2023-01-13T10:41:18.048Z,99494.09
2023-01-13T10:43:45.486Z,99504.88
2023-01-13T10:46:18.033Z,99501.50
2023-01-13T10:48:57.917Z,99504.91
2023-01-13T10:51:25.968Z,99485.59
2023-01-13T10:54:13.037Z,99493.22
2023-01-13T10:56:42.139Z,99494.09
2023-01-13T10:59:14.144Z,99490.94
2023-01-13T11:01:43.459Z,99479.31
2023-01-13T11:04:44.142Z,99481.00
2023-01-13T11:07:37.034Z,99492.91
2023-01-13T11:10:19.009Z,99481.06
2023-01-13T11:13:13.910Z,99487.97
2023-01-13T11:15:54.813Z,99494.63
2023-01-13T11:18:43.535Z,99488.72
2023-01-13T11:21:27.812Z,99495.56
2023-01-13T11:24:25.020Z,99495.59
2023-01-13T11:26:59.238Z,99511.69
2023-01-13T11:29:45.053Z,99523.03
2023-01-13T11:32:17.695Z,99526.00
2023-01-13T11:34:49.201Z,99546.22
2023-01-13T11:37:27.458Z,99557.41
2023-01-13T11:40:09.337Z,99545.28
2023-01-13T11:42:46.662Z,99543.91
2023-01-13T11:45:30.178Z,99535.03
2023-01-13T11:48:00.179Z,99534.66
2023-01-13T11:50:34.955Z,99534.59
2023-01-13T11:53:39.029Z,99541.22
2023-01-13T11:56:24.283Z,99543.66
2023-01-13T11:59:02.961Z,99542.81
2023-01-13T12:01:38.021Z,99537.84
2023-01-13T12:04:22.982Z,99542.06
2023-01-13T12:07:02.694Z,99534.59
2023-01-13T12:09:47.273Z,99539.75
2023-01-13T12:12:39.105Z,99526.34
2023-01-13T12:15:21.679Z,99537.41
2023-01-13T12:18:00.661Z,99529.06
2023-01-13T12:20:39.304Z,99530.84
2023-01-13T12:23:17.985Z,99536.81
2023-01-13T12:25:49.442Z,99532.50
2023-01-13T12:28:23.944Z,99530.84
2023-01-13T12:30:57.431Z,99536.75
2023-01-13T12:33:58.894Z,99537.59
2023-01-13T12:36:48.337Z,99541.13
2023-01-13T12:39:40.588Z,99535.41
2023-01-13T12:42:36.489Z,99537.13
2023-01-13T12:45:12.165Z,99531.31
2023-01-13T12:47:43.927Z,99528.63
2023-01-13T12:50:22.615Z,99541.41
2023-01-13T12:52:59.963Z,99534.75
2023-01-13T12:55:33.216Z,99542.38
2023-01-13T12:58:15.840Z,99545.81
2023-01-13T13:00:44.668Z,99550.88
2023-01-13T13:03:12.081Z,99554.31
2023-01-13T13:06:02.031Z,99567.81
2023-01-13T13:08:42.605Z,99571.25
2023-01-13T13:11:34.128Z,99561.13
2023-01-13T13:14:12.133Z,99560.97
2023-01-13T13:16:49.194Z,99566.84
2023-01-13T13:19:18.883Z,99564.22
2023-01-13T13:22:13.932Z,99567.69
2023-01-13T13:24:43.043Z,99555.00
2023-01-13T13:27:32.073Z,99559.25
2023-01-13T13:30:03.092Z,99560.03
2023-01-13T13:33:00.037Z,99554.22
2023-01-13T13:35:51.741Z,99556.53
2023-01-13T13:39:37.585Z,99570.13
2023-01-13T13:42:54.233Z,99572.66
2023-01-13T13:45:45.509Z,99570.13
2023-01-13T13:48:30.694Z,99581.06
2023-01-13T13:51:04.561Z,99581.16
2023-01-13T13:53:35.576Z,99590.28
2023-01-13T13:56:07.358Z,99595.34
2023-01-13T13:58:36.942Z,99585.28
2023-01-13T14:01:05.016Z,99589.28
2023-01-13T14:03:34.820Z,99569.09
2023-01-13T14:06:04.310Z,99593.59
2023-01-13T14:08:38.936Z,99584.56
2023-01-13T14:11:36.000Z,99588.00
2023-01-13T14:14:04.782Z,99587.53
2023-01-13T14:16:35.033Z,99590.06
2023-01-13T14:19:02.969Z,99597.81
2023-01-13T14:21:30.609Z,99610.59
2023-01-13T14:24:14.739Z,99613.97
2023-01-13T14:26:41.800Z,99615.69
2023-01-13T14:29:15.303Z,99609.00
2023-01-13T14:31:42.191Z,99624.19
2023-01-13T14:34:31.355Z,99620.88
2023-01-13T14:36:59.860Z,99623.41
2023-01-13T14:39:38.100Z,99616.69
2023-01-13T14:42:12.101Z,99631.72
2023-01-13T14:44:45.867Z,99639.16
2023-01-13T14:47:23.500Z,99624.47
2023-01-13T14:49:58.790Z,99628.78
2023-01-13T14:52:28.029Z,99639.72
2023-01-13T14:55:17.633Z,99638.03
2023-01-13T14:57:44.458Z,99637.09
2023-01-13T15:00:14.931Z,99640.56
2023-01-13T15:02:56.990Z,99637.91
2023-01-13T15:05:31.629Z,99631.81
2023-01-13T15:08:04.550Z,99619.19
2023-01-13T15:10:54.759Z,99631.94
2023-01-13T15:13:26.613Z,99650.47
2023-01-13T15:15:56.746Z,99649.69
2023-01-13T15:18:23.639Z,99640.44
2023-01-13T15:20:51.028Z,99645.34
2023-01-13T15:23:18.863Z,99641.84
2023-01-13T15:25:47.201Z,99646.75
2023-01-13T15:28:25.721Z,99643.31
2023-01-13T15:30:54.335Z,99666.91
2023-01-13T15:33:22.659Z,99667.00
2023-01-13T15:35:51.772Z,99659.25
2023-01-13T15:38:21.199Z,99664.28
2023-01-13T15:40:52.617Z,99682.16
2023-01-13T15:43:45.936Z,99687.22
2023-01-13T15:46:34.125Z,99693.00
2023-01-13T15:49:03.657Z,99708.16
2023-01-13T15:51:30.395Z,99697.00
2023-01-13T15:54:00.492Z,99695.25
2023-01-13T15:56:27.258Z,99698.44
2023-01-13T15:58:54.656Z,99702.28
2023-01-13T16:01:21.933Z,99704.66
2023-01-13T16:03:48.828Z,99722.19
2023-01-13T16:06:21.136Z,99718.91
2023-01-13T16:08:47.832Z,99709.09
2023-01-13T16:11:14.587Z,99718.66
2023-01-13T16:13:41.332Z,99719.66
2023-01-13T16:16:20.518Z,99710.38
2023-01-13T16:18:47.673Z,99710.31
2023-01-13T16:21:14.876Z,99717.75
2023-01-13T16:23:42.129Z,99729.56
2023-01-13T16:26:17.915Z,99727.91
2023-01-13T16:28:44.852Z,99724.59
2023-01-13T16:31:32.795Z,99731.28
2023-01-13T16:34:02.576Z,99727.16
2023-01-13T16:36:31.761Z,99720.69
2023-01-13T16:38:58.651Z,99721.84
2023-01-13T16:41:25.568Z,99736.97
2023-01-13T16:43:52.605Z,99731.13
2023-01-13T16:46:25.430Z,99722.81
2023-01-13T16:48:54.273Z,99747.31
2023-01-13T16:51:22.098Z,99754.91
2023-01-13T16:53:49.718Z,99752.38
2023-01-13T16:56:27.023Z,99771.59
2023-01-13T16:58:56.512Z,99784.66
2023-01-13T17:01:26.988Z,99795.47
2023-01-13T17:03:54.845Z,99800.94
2023-01-13T17:06:37.142Z,99807.38
2023-01-13T17:09:14.453Z,99817.81
2023-01-13T17:11:41.145Z,99823.44
2023-01-13T17:14:19.223Z,99842.44
2023-01-13T17:16:47.348Z,99843.94
2023-01-13T17:19:14.113Z,99857.19
2023-01-13T17:21:41.094Z,99855.97
2023-01-13T17:24:09.542Z,99863.59
2023-01-13T17:26:43.872Z,99870.78
2023-01-13T17:29:16.605Z,99869.75
2023-01-13T17:31:43.663Z,99850.91
2023-01-13T17:34:11.973Z,99859.91
2023-01-13T17:36:39.406Z,99868.03
2023-01-13T17:39:06.916Z,99870.13
2023-01-13T17:41:33.670Z,99861.25
2023-01-13T17:44:00.399Z,99869.53
2023-01-13T17:46:27.494Z,99855.13
2023-01-13T17:48:56.087Z,99872.91
2023-01-13T17:51:25.132Z,99875.44
2023-01-13T17:53:53.197Z,99888.75
2023-01-13T17:56:19.929Z,99889.34
2023-01-13T17:58:46.774Z,99895.34
2023-01-13T18:01:17.077Z,99901.88
2023-01-13T18:03:44.252Z,99904.38
2023-01-13T18:06:19.876Z,99904.31
2023-01-13T18:08:47.414Z,99912.75
2023-01-13T18:11:18.695Z,99896.81
2023-01-13T18:13:46.802Z,99904.38
2023-01-13T18:16:16.099Z,99901.56
2023-01-13T18:18:44.944Z,99915.97
2023-01-13T18:21:39.863Z,99914.22
2023-01-13T18:24:38.245Z,99923.53
2023-01-13T18:27:23.839Z,99924.38
2023-01-13T18:29:52.912Z,99922.59
2023-01-13T18:32:21.861Z,99924.47
2023-01-13T18:35:10.445Z,99925.25
2023-01-13T18:37:39.945Z,99930.47
2023-01-13T18:40:10.012Z,99930.38
2023-01-13T18:42:53.526Z,99937.38
2023-01-13T18:45:29.034Z,99934.81
2023-01-13T18:47:57.925Z,99944.19
2023-01-13T18:50:26.389Z,99951.63
2023-01-13T18:52:53.101Z,99948.34
2023-01-13T18:55:20.147Z,99954.06
2023-01-13T18:57:46.933Z,99957.28
2023-01-13T19:00:17.661Z,99966.59
2023-01-13T19:02:45.342Z,99966.50
2023-01-13T19:05:13.018Z,99969.19
2023-01-13T19:07:39.809Z,99990.16
2023-01-13T19:10:09.632Z,99998.66
2023-01-13T19:12:36.364Z,100000.38
2023-01-13T19:15:03.452Z,100004.56
2023-01-13T19:17:33.330Z,100002.03
2023-01-13T19:20:00.364Z,100016.28
2023-01-13T19:22:30.811Z,100025.50
2023-01-13T19:24:58.553Z,100028.81
2023-01-13T19:27:27.427Z,100040.53
2023-01-13T19:29:57.437Z,100039.69
2023-01-13T19:32:25.588Z,100042.91
2023-01-13T19:34:54.911Z,100027.00
2023-01-13T19:37:21.872Z,100035.34
2023-01-13T19:39:48.569Z,100036.97
2023-01-13T19:42:33.898Z,100060.44
2023-01-13T19:45:19.291Z,100056.19
2023-01-13T19:47:46.047Z,100063.56
2023-01-13T19:50:13.950Z,100072.69
2023-01-13T19:52:42.243Z,100082.69
2023-01-13T19:55:10.817Z,100064.13
2023-01-13T19:57:39.508Z,100065.59
2023-01-13T20:00:08.801Z,100073.31
2023-01-13T20:02:36.879Z,100078.03
2023-01-13T20:05:06.402Z,100086.53
2023-01-13T20:07:33.830Z,100103.28
2023-01-13T20:10:01.562Z,100102.41
2023-01-13T20:12:29.112Z,100103.97
2023-01-13T20:14:56.109Z,100121.34
2023-01-13T20:17:23.243Z,100117.28
2023-01-13T20:19:50.382Z,100102.41
2023-01-13T20:22:17.109Z,100131.53
2023-01-13T20:24:43.776Z,100138.97
2023-01-13T20:27:10.645Z,100146.44
2023-01-13T20:29:37.754Z,100168.34
2023-01-13T20:32:05.111Z,100154.19
2023-01-13T20:34:31.888Z,100134.91
2023-01-13T20:36:58.641Z,100128.91
2023-01-13T20:39:26.621Z,100123.44
2023-01-13T20:42:12.709Z,100123.34
2023-01-13T20:44:39.799Z,100142.53
2023-01-13T20:47:07.149Z,100140.34
2023-01-13T20:49:36.084Z,100161.56
2023-01-13T20:52:09.098Z,100158.06
2023-01-13T20:54:37.539Z,100175.53
2023-01-13T20:57:05.657Z,100164.56
2023-01-13T20:59:32.387Z,100165.16
2023-01-13T21:01:59.490Z,100173.34
2023-01-13T21:04:26.342Z,100175.75
2023-01-13T21:06:53.109Z,100184.97
2023-01-13T21:09:19.867Z,100192.50
2023-01-13T21:12:05.193Z,100188.94
2023-01-13T21:14:50.624Z,100187.38
2023-01-13T21:17:35.732Z,100185.56
2023-01-13T21:20:04.471Z,100185.56
2023-01-13T21:22:31.470Z,100193.22
2023-01-13T21:24:58.471Z,100190.47
2023-01-13T21:27:25.966Z,100185.28
2023-01-13T21:29:52.671Z,100199.88
2023-01-13T21:32:19.370Z,100199.69
2023-01-13T21:34:46.478Z,100213.25
2023-01-13T21:37:14.795Z,100214.91
2023-01-13T21:39:42.595Z,100211.69
2023-01-13T21:42:32.414Z,100208.38
2023-01-13T21:45:17.798Z,100213.50
2023-01-13T21:47:50.365Z,100212.56
2023-01-13T21:50:19.974Z,100220.28
2023-01-13T21:52:48.679Z,100217.75
2023-01-13T21:55:26.930Z,100227.06
2023-01-13T21:57:55.075Z,100222.91
2023-01-13T22:00:24.224Z,100236.44
2023-01-13T22:02:51.471Z,100239.81
2023-01-13T22:05:20.173Z,100248.94
2023-01-13T22:07:47.502Z,100250.59
2023-01-13T22:10:17.659Z,100251.44
2023-01-13T22:12:44.852Z,100252.03
2023-01-13T22:15:12.949Z,100259.69
2023-01-13T22:17:41.005Z,100251.97
2023-01-13T22:20:12.820Z,100261.94
2023-01-13T22:22:39.524Z,100262.78
2023-01-13T22:25:08.917Z,100270.16
2023-01-13T22:27:42.225Z,100274.34
2023-01-13T22:30:14.070Z,100282.59
2023-01-13T22:32:40.894Z,100284.47
2023-01-13T22:35:09.707Z,100288.75
2023-01-13T22:37:37.229Z,100293.69
2023-01-13T22:40:05.531Z,100293.69
2023-01-13T22:42:32.494Z,100292.03
2023-01-13T22:44:59.267Z,100293.00
2023-01-13T22:47:26.072Z,100304.91
2023-01-13T22:49:52.817Z,100311.97
2023-01-13T22:52:19.600Z,100324.09
2023-01-13T22:54:46.368Z,100323.47
2023-01-13T22:57:13.102Z,100332.78
2023-01-13T22:59:39.759Z,100328.78
2023-01-13T23:02:06.464Z,100339.25
2023-01-13T23:04:33.396Z,100337.69
2023-01-13T23:07:00.199Z,100343.69
2023-01-13T23:09:29.904Z,100338.47
2023-01-13T23:11:58.170Z,100343.88
2023-01-13T23:14:25.496Z,100348.16
2023-01-13T23:16:52.587Z,100354.03
2023-01-13T23:19:19.517Z,100340.38
2023-01-13T23:21:47.014Z,100352.50
2023-01-13T23:24:13.828Z,100357.53
2023-01-13T23:26:41.093Z,100359.25
2023-01-13T23:29:10.914Z,100361.78
2023-01-13T23:31:40.634Z,100361.19
2023-01-13T23:34:07.933Z,100365.25
2023-01-13T23:36:37.073Z,100376.41
2023-01-13T23:39:04.111Z,100383.28
2023-01-13T23:41:30.928Z,100377.44
2023-01-13T23:44:00.006Z,100382.69
2023-01-13T23:46:29.148Z,100378.50
2023-01-13T23:48:55.905Z,100377.81
2023-01-13T23:51:23.262Z,100381.13
2023-01-13T23:53:50.798Z,100382.09
2023-01-13T23:56:23.073Z,100388.09
2023-01-13T23:58:50.850Z,100392.34
